sensor_id;sensor_type;location;lat;lon;timestamp;pressure;altitude;pressure_sealevel;temperature;humidity
47738;BME280;33502;47.182;27.506;2023-04-24T00:01:51;99984.22;;;8.63;100.00
47738;BME280;33502;47.182;27.506;2023-04-24T00:04:18;99982.44;;;8.63;100.00
47738;BME280;33502;47.182;27.506;2023-04-24T00:06:43;99983.44;;;8.61;100.00
47738;BME280;33502;47.182;27.506;2023-04-24T00:09:09;99974.28;;;8.70;100.00
47738;BME280;33502;47.182;27.506;2023-04-24T00:11:35;99970.97;;;8.87;100.00
47738;BME280;33502;47.182;27.506;2023-04-24T00:14:01;99968.00;;;8.94;100.00
47738;BME280;33502;47.182;27.506;2023-04-24T00:16:27;99969.53;;;9.00;100.00
47738;BME280;33502;47.182;27.506;2023-04-24T00:18:53;99969.34;;;9.05;100.00
47738;BME280;33502;47.182;27.506;2023-04-24T00:21:18;99967.69;;;9.02;100.00
47738;BME280;33502;47.182;27.506;2023-04-24T00:23:44;99975.78;;;8.97;100.00
47738;BME280;33502;47.182;27.506;2023-04-24T00:26:10;99969.34;;;8.82;100.00
47738;BME280;33502;47.182;27.506;2023-04-24T00:28:35;99967.59;;;8.61;100.00
47738;BME280;33502;47.182;27.506;2023-04-24T00:31:03;99966.56;;;8.43;100.00
47738;BME280;33502;47.182;27.506;2023-04-24T00:33:28;99959.97;;;8.31;100.00
47738;BME280;33502;47.182;27.506;2023-04-24T00:35:54;99957.94;;;8.16;100.00
47738;BME280;33502;47.182;27.506;2023-04-24T00:38:19;99961.88;;;8.04;100.00
47738;BME280;33502;47.182;27.506;2023-04-24T00:40:46;99958.91;;;7.90;100.00
47738;BME280;33502;47.182;27.506;2023-04-24T00:43:12;99964.41;;;7.83;100.00
47738;BME280;33502;47.182;27.506;2023-04-24T00:45:38;99961.88;;;7.80;100.00
47738;BME280;33502;47.182;27.506;2023-04-24T00:48:04;99958.72;;;7.94;100.00
47738;BME280;33502;47.182;27.506;2023-04-24T00:50:30;99951.16;;;8.09;100.00
47738;BME280;33502;47.182;27.506;2023-04-24T00:52:56;99955.41;;;8.13;100.00
47738;BME280;33502;47.182;27.506;2023-04-24T00:55:21;99960.91;;;8.07;100.00
47738;BME280;33502;47.182;27.506;2023-04-24T00:57:47;99957.59;;;8.01;100.00
47738;BME280;33502;47.182;27.506;2023-04-24T01:00:14;99962.28;;;7.93;100.00
47738;BME280;33502;47.182;27.506;2023-04-24T01:02:41;99955.63;;;7.83;100.00
47738;BME280;33502;47.182;27.506;2023-04-24T01:05:12;99959.34;;;7.77;100.00
47738;BME280;33502;47.182;27.506;2023-04-24T01:07:39;99952.47;;;7.73;100.00
47738;BME280;33502;47.182;27.506;2023-04-24T01:10:05;99949.88;;;7.72;100.00
47738;BME280;33502;47.182;27.506;2023-04-24T01:12:31;99953.41;;;7.72;100.00
47738;BME280;33502;47.182;27.506;2023-04-24T01:14:57;99952.53;;;7.72;100.00
47738;BME280;33502;47.182;27.506;2023-04-24T01:17:23;99949.09;;;7.70;100.00
47738;BME280;33502;47.182;27.506;2023-04-24T01:19:48;99944.84;;;7.65;100.00
47738;BME280;33502;47.182;27.506;2023-04-24T01:22:14;99944.50;;;7.51;100.00
47738;BME280;33502;47.182;27.506;2023-04-24T01:24:40;99947.47;;;7.42;100.00
47738;BME280;33502;47.182;27.506;2023-04-24T01:27:07;99939.13;;;7.29;100.00
47738;BME280;33502;47.182;27.506;2023-04-24T01:29:32;99934.09;;;7.23;100.00
47738;BME280;33502;47.182;27.506;2023-04-24T01:31:59;99931.78;;;7.14;100.00
47738;BME280;33502;47.182;27.506;2023-04-24T01:34:25;99932.75;;;7.11;100.00
47738;BME280;33502;47.182;27.506;2023-04-24T01:36:51;99932.84;;;7.08;100.00
47738;BME280;33502;47.182;27.506;2023-04-24T01:39:16;99933.97;;;7.01;100.00
47738;BME280;33502;47.182;27.506;2023-04-24T01:41:42;99926.06;;;7.01;100.00
47738;BME280;33502;47.182;27.506;2023-04-24T01:44:08;99929.69;;;6.98;100.00
47738;BME280;33502;47.182;27.506;2023-04-24T01:46:34;99925.25;;;6.99;100.00
47738;BME280;33502;47.182;27.506;2023-04-24T01:49:02;99918.06;;;7.04;100.00
47738;BME280;33502;47.182;27.506;2023-04-24T01:51:28;99918.66;;;7.12;100.00
47738;BME280;33502;47.182;27.506;2023-04-24T01:53:55;99915.66;;;7.23;100.00
47738;BME280;33502;47.182;27.506;2023-04-24T01:56:21;99906.50;;;7.33;100.00
47738;BME280;33502;47.182;27.506;2023-04-24T01:58:47;99910.66;;;7.40;100.00
47738;BME280;33502;47.182;27.506;2023-04-24T02:01:20;99900.97;;;7.41;100.00
47738;BME280;33502;47.182;27.506;2023-04-24T02:03:47;99897.66;;;7.36;100.00
47738;BME280;33502;47.182;27.506;2023-04-24T02:06:12;99891.72;;;7.29;100.00
47738;BME280;33502;47.182;27.506;2023-04-24T02:08:38;99891.88;;;7.26;100.00
47738;BME280;33502;47.182;27.506;2023-04-24T02:11:05;99889.38;;;7.21;100.00
47738;BME280;33502;47.182;27.506;2023-04-24T02:13:31;99887.72;;;7.19;100.00
47738;BME280;33502;47.182;27.506;2023-04-24T02:15:58;99888.56;;;7.19;100.00
47738;BME280;33502;47.182;27.506;2023-04-24T02:18:23;99892.00;;;7.21;100.00
47738;BME280;33502;47.182;27.506;2023-04-24T02:20:49;99885.91;;;7.21;100.00
47738;BME280;33502;47.182;27.506;2023-04-24T02:23:15;99886.75;;;7.21;100.00
47738;BME280;33502;47.182;27.506;2023-04-24T02:25:41;99891.16;;;7.21;100.00
47738;BME280;33502;47.182;27.506;2023-04-24T02:28:06;99896.38;;;7.22;100.00
47738;BME280;33502;47.182;27.506;2023-04-24T02:30:33;99885.03;;;7.20;100.00
47738;BME280;33502;47.182;27.506;2023-04-24T02:32:58;99893.09;;;7.16;100.00
47738;BME280;33502;47.182;27.506;2023-04-24T02:35:25;99890.59;;;7.13;100.00
47738;BME280;33502;47.182;27.506;2023-04-24T02:37:50;99889.81;;;7.09;100.00
47738;BME280;33502;47.182;27.506;2023-04-24T02:40:16;99894.28;;;7.07;100.00
47738;BME280;33502;47.182;27.506;2023-04-24T02:42:42;99895.22;;;7.04;100.00
47738;BME280;33502;47.182;27.506;2023-04-24T02:45:07;99896.16;;;7.03;100.00
47738;BME280;33502;47.182;27.506;2023-04-24T02:47:33;99895.38;;;7.01;100.00
47738;BME280;33502;47.182;27.506;2023-04-24T02:49:59;99890.19;;;6.98;100.00
47738;BME280;33502;47.182;27.506;2023-04-24T02:52:25;99884.97;;;6.97;100.00
47738;BME280;33502;47.182;27.506;2023-04-24T02:54:51;99890.38;;;6.94;100.00
47738;BME280;33502;47.182;27.506;2023-04-24T02:57:16;99887.06;;;6.87;100.00
47738;BME280;33502;47.182;27.506;2023-04-24T02:59:42;99884.59;;;6.82;100.00
47738;BME280;33502;47.182;27.506;2023-04-24T03:02:08;99889.97;;;6.79;100.00
47738;BME280;33502;47.182;27.506;2023-04-24T03:04:33;99889.16;;;6.77;100.00
47738;BME280;33502;47.182;27.506;2023-04-24T03:06:59;99891.88;;;6.74;100.00
47738;BME280;33502;47.182;27.506;2023-04-24T03:09:26;99890.28;;;6.70;100.00
47738;BME280;33502;47.182;27.506;2023-04-24T03:11:52;99891.25;;;6.68;100.00
47738;BME280;33502;47.182;27.506;2023-04-24T03:14:18;99889.50;;;6.66;100.00
47738;BME280;33502;47.182;27.506;2023-04-24T03:16:44;99889.41;;;6.70;100.00
47738;BME280;33502;47.182;27.506;2023-04-24T03:19:10;99890.28;;;6.70;100.00
47738;BME280;33502;47.182;27.506;2023-04-24T03:21:44;99892.91;;;6.70;100.00
47738;BME280;33502;47.182;27.506;2023-04-24T03:24:10;99892.94;;;6.69;100.00
47738;BME280;33502;47.182;27.506;2023-04-24T03:26:37;99907.84;;;6.70;100.00
47738;BME280;33502;47.182;27.506;2023-04-24T03:29:27;99906.88;;;6.72;100.00
47738;BME280;33502;47.182;27.506;2023-04-24T03:31:53;99898.78;;;6.78;100.00
47738;BME280;33502;47.182;27.506;2023-04-24T03:34:19;99900.28;;;6.85;100.00
47738;BME280;33502;47.182;27.506;2023-04-24T03:36:45;99903.53;;;6.94;100.00
47738;BME280;33502;47.182;27.506;2023-04-24T03:39:13;99902.28;;;7.04;100.00
47738;BME280;33502;47.182;27.506;2023-04-24T03:41:45;99906.38;;;7.13;100.00
47738;BME280;33502;47.182;27.506;2023-04-24T03:44:17;99904.38;;;7.19;100.00
47738;BME280;33502;47.182;27.506;2023-04-24T03:46:44;99905.84;;;7.28;100.00
47738;BME280;33502;47.182;27.506;2023-04-24T03:49:09;99913.50;;;7.34;100.00
47738;BME280;33502;47.182;27.506;2023-04-24T03:51:39;99909.66;;;7.43;100.00
47738;BME280;33502;47.182;27.506;2023-04-24T03:54:14;99910.94;;;7.56;100.00
47738;BME280;33502;47.182;27.506;2023-04-24T03:56:39;99908.53;;;7.74;100.00
47738;BME280;33502;47.182;27.506;2023-04-24T03:59:05;99913.81;;;7.97;100.00
47738;BME280;33502;47.182;27.506;2023-04-24T04:01:31;99914.69;;;8.20;100.00
47738;BME280;33502;47.182;27.506;2023-04-24T04:04:05;99915.50;;;8.44;100.00
47738;BME280;33502;47.182;27.506;2023-04-24T04:06:31;99923.25;;;8.69;100.00
47738;BME280;33502;47.182;27.506;2023-04-24T04:08:58;99914.78;;;9.04;100.00
47738;BME280;33502;47.182;27.506;2023-04-24T04:11:24;99915.50;;;9.48;100.00
47738;BME280;33502;47.182;27.506;2023-04-24T04:13:50;99918.53;;;9.97;100.00
47738;BME280;33502;47.182;27.506;2023-04-24T04:16:19;99914.66;;;10.43;100.00
47738;BME280;33502;47.182;27.506;2023-04-24T04:18:47;99921.13;;;11.08;100.00
47738;BME280;33502;47.182;27.506;2023-04-24T04:21:12;99920.47;;;11.71;100.00
47738;BME280;33502;47.182;27.506;2023-04-24T04:23:38;99918.47;;;12.24;100.00
47738;BME280;33502;47.182;27.506;2023-04-24T04:26:18;99922.34;;;12.81;100.00
47738;BME280;33502;47.182;27.506;2023-04-24T04:29:10;99919.31;;;13.17;100.00
47738;BME280;33502;47.182;27.506;2023-04-24T04:31:41;99916.78;;;13.30;100.00
47738;BME280;33502;47.182;27.506;2023-04-24T04:34:10;99915.59;;;13.64;100.00
47738;BME280;33502;47.182;27.506;2023-04-24T04:36:38;99916.31;;;13.95;100.00
47738;BME280;33502;47.182;27.506;2023-04-24T04:39:28;99916.75;;;14.16;100.00
47738;BME280;33502;47.182;27.506;2023-04-24T04:42:00;99921.19;;;14.30;100.00
47738;BME280;33502;47.182;27.506;2023-04-24T04:44:32;99915.63;;;14.47;100.00
47738;BME280;33502;47.182;27.506;2023-04-24T04:46:59;99926.19;;;14.76;100.00
47738;BME280;33502;47.182;27.506;2023-04-24T04:49:29;99922.25;;;15.22;100.00
47738;BME280;33502;47.182;27.506;2023-04-24T04:51:55;99927.59;;;15.35;97.42
47738;BME280;33502;47.182;27.506;2023-04-24T04:54:23;99920.44;;;15.74;97.13
47738;BME280;33502;47.182;27.506;2023-04-24T04:56:50;99923.41;;;15.95;92.61
47738;BME280;33502;47.182;27.506;2023-04-24T04:59:15;99927.28;;;15.91;91.88
47738;BME280;33502;47.182;27.506;2023-04-24T05:01:41;99924.06;;;15.85;91.38
47738;BME280;33502;47.182;27.506;2023-04-24T05:04:09;99931.31;;;16.09;90.81
47738;BME280;33502;47.182;27.506;2023-04-24T05:06:36;99924.09;;;16.22;88.08
47738;BME280;33502;47.182;27.506;2023-04-24T05:09:01;99925.56;;;16.39;87.68
47738;BME280;33502;47.182;27.506;2023-04-24T05:11:42;99931.94;;;16.37;86.85
47738;BME280;33502;47.182;27.506;2023-04-24T05:14:08;99928.97;;;16.41;86.96
47738;BME280;33502;47.182;27.506;2023-04-24T05:16:36;99922.53;;;16.44;86.64
47738;BME280;33502;47.182;27.506;2023-04-24T05:19:03;99928.47;;;16.72;85.06
47738;BME280;33502;47.182;27.506;2023-04-24T05:21:34;99923.38;;;16.69;84.16
47738;BME280;33502;47.182;27.506;2023-04-24T05:24:00;99933.16;;;16.81;83.11
47738;BME280;33502;47.182;27.506;2023-04-24T05:26:41;99932.09;;;17.19;81.01
47738;BME280;33502;47.182;27.506;2023-04-24T05:29:08;99934.25;;;17.60;78.78
47738;BME280;33502;47.182;27.506;2023-04-24T05:31:34;99926.13;;;17.73;77.09
47738;BME280;33502;47.182;27.506;2023-04-24T05:34:00;99933.53;;;18.04;75.72
47738;BME280;33502;47.182;27.506;2023-04-24T05:36:27;99933.16;;;18.31;74.06
47738;BME280;33502;47.182;27.506;2023-04-24T05:38:53;99931.75;;;18.04;73.98
47738;BME280;33502;47.182;27.506;2023-04-24T05:41:19;99926.97;;;18.19;73.56
47738;BME280;33502;47.182;27.506;2023-04-24T05:43:45;99936.59;;;18.22;72.75
47738;BME280;33502;47.182;27.506;2023-04-24T05:46:11;99934.41;;;18.27;72.00
47738;BME280;33502;47.182;27.506;2023-04-24T05:48:38;99929.88;;;18.38;72.08
47738;BME280;33502;47.182;27.506;2023-04-24T05:51:03;99928.66;;;18.75;69.96
47738;BME280;33502;47.182;27.506;2023-04-24T05:53:29;99928.38;;;19.31;68.68
47738;BME280;33502;47.182;27.506;2023-04-24T05:55:55;99926.63;;;19.63;65.91
47738;BME280;33502;47.182;27.506;2023-04-24T05:58:22;99924.75;;;19.84;64.61
47738;BME280;33502;47.182;27.506;2023-04-24T06:00:48;99932.72;;;19.95;64.76
47738;BME280;33502;47.182;27.506;2023-04-24T06:03:16;99930.50;;;20.01;63.26
47738;BME280;33502;47.182;27.506;2023-04-24T06:05:41;99925.50;;;19.96;63.17
47738;BME280;33502;47.182;27.506;2023-04-24T06:08:07;99923.66;;;20.37;62.38
47738;BME280;33502;47.182;27.506;2023-04-24T06:10:37;99922.81;;;20.46;60.14
47738;BME280;33502;47.182;27.506;2023-04-24T06:13:03;99917.19;;;20.79;59.73
47738;BME280;33502;47.182;27.506;2023-04-24T06:15:31;99918.00;;;21.57;58.71
47738;BME280;33502;47.182;27.506;2023-04-24T06:18:00;99919.78;;;22.04;56.51
47738;BME280;33502;47.182;27.506;2023-04-24T06:20:26;99924.44;;;22.12;56.40
47738;BME280;33502;47.182;27.506;2023-04-24T06:22:51;99918.94;;;22.59;54.72
47738;BME280;33502;47.182;27.506;2023-04-24T06:25:17;99916.84;;;22.71;53.26
47738;BME280;33502;47.182;27.506;2023-04-24T06:27:43;99926.41;;;22.83;53.28
47738;BME280;33502;47.182;27.506;2023-04-24T06:30:09;99925.84;;;22.79;53.16
47738;BME280;33502;47.182;27.506;2023-04-24T06:32:34;99925.47;;;23.28;53.20
47738;BME280;33502;47.182;27.506;2023-04-24T06:35:00;99919.06;;;23.55;52.67
47738;BME280;33502;47.182;27.506;2023-04-24T06:37:27;99924.97;;;23.51;51.45
47738;BME280;33502;47.182;27.506;2023-04-24T06:39:52;99922.28;;;23.33;52.30
47738;BME280;33502;47.182;27.506;2023-04-24T06:42:18;99932.78;;;23.36;52.46
47738;BME280;33502;47.182;27.506;2023-04-24T06:44:48;99930.06;;;23.80;50.83
47738;BME280;33502;47.182;27.506;2023-04-24T06:47:14;99920.16;;;23.97;50.23
47738;BME280;33502;47.182;27.506;2023-04-24T06:49:41;99922.63;;;23.82;49.01
47738;BME280;33502;47.182;27.506;2023-04-24T06:52:06;99914.50;;;23.82;49.90
47738;BME280;33502;47.182;27.506;2023-04-24T06:54:32;99923.94;;;23.78;47.81
47738;BME280;33502;47.182;27.506;2023-04-24T06:56:58;99921.00;;;23.71;48.66
47738;BME280;33502;47.182;27.506;2023-04-24T06:59:26;99926.94;;;23.75;47.98
47738;BME280;33502;47.182;27.506;2023-04-24T07:01:52;99926.69;;;24.20;47.81
47738;BME280;33502;47.182;27.506;2023-04-24T07:04:17;99916.53;;;23.80;47.69
47738;BME280;33502;47.182;27.506;2023-04-24T07:06:44;99915.72;;;23.61;48.67
47738;BME280;33502;47.182;27.506;2023-04-24T07:09:11;99913.88;;;23.88;48.53
47738;BME280;33502;47.182;27.506;2023-04-24T07:11:36;99920.28;;;24.30;46.76
47738;BME280;33502;47.182;27.506;2023-04-24T07:14:04;99909.50;;;23.95;46.16
47738;BME280;33502;47.182;27.506;2023-04-24T07:16:30;99917.31;;;23.46;46.81
47738;BME280;33502;47.182;27.506;2023-04-24T07:18:55;99917.91;;;23.14;47.10
47738;BME280;33502;47.182;27.506;2023-04-24T07:21:21;99920.47;;;23.15;47.38
47738;BME280;33502;47.182;27.506;2023-04-24T07:23:47;99915.09;;;23.41;47.83
47738;BME280;33502;47.182;27.506;2023-04-24T07:26:12;99907.44;;;23.37;47.34
47738;BME280;33502;47.182;27.506;2023-04-24T07:28:40;99903.22;;;23.34;47.85
47738;BME280;33502;47.182;27.506;2023-04-24T07:31:06;99910.13;;;23.55;47.11
47738;BME280;33502;47.182;27.506;2023-04-24T07:33:32;99908.44;;;22.92;48.03
47738;BME280;33502;47.182;27.506;2023-04-24T07:35:58;99908.75;;;22.71;48.56
47738;BME280;33502;47.182;27.506;2023-04-24T07:38:24;99905.59;;;22.75;48.62
47738;BME280;33502;47.182;27.506;2023-04-24T07:40:51;99899.63;;;22.72;48.89
47738;BME280;33502;47.182;27.506;2023-04-24T07:43:17;99911.47;;;23.33;47.78
47738;BME280;33502;47.182;27.506;2023-04-24T07:45:43;99899.41;;;23.45;47.29
47738;BME280;33502;47.182;27.506;2023-04-24T07:48:09;99898.66;;;23.61;45.74
47738;BME280;33502;47.182;27.506;2023-04-24T07:50:35;99897.66;;;23.62;46.85
47738;BME280;33502;47.182;27.506;2023-04-24T07:53:02;99903.91;;;23.89;46.04
47738;BME280;33502;47.182;27.506;2023-04-24T07:55:27;99902.91;;;23.98;46.13
47738;BME280;33502;47.182;27.506;2023-04-24T07:57:53;99895.94;;;23.79;45.10
47738;BME280;33502;47.182;27.506;2023-04-24T08:00:19;99903.19;;;23.52;45.49
47738;BME280;33502;47.182;27.506;2023-04-24T08:02:45;99893.44;;;23.94;44.95
47738;BME280;33502;47.182;27.506;2023-04-24T08:05:11;99900.22;;;23.98;45.00
47738;BME280;33502;47.182;27.506;2023-04-24T08:07:36;99901.75;;;23.66;45.66
47738;BME280;33502;47.182;27.506;2023-04-24T08:10:03;99896.34;;;24.00;43.62
47738;BME280;33502;47.182;27.506;2023-04-24T08:12:29;99880.97;;;23.67;44.56
47738;BME280;33502;47.182;27.506;2023-04-24T08:14:54;99888.34;;;23.56;45.13
47738;BME280;33502;47.182;27.506;2023-04-24T08:17:20;99882.63;;;24.36;44.59
47738;BME280;33502;47.182;27.506;2023-04-24T08:19:46;99883.16;;;23.97;44.55
47738;BME280;33502;47.182;27.506;2023-04-24T08:22:16;99883.53;;;24.61;43.74
47738;BME280;33502;47.182;27.506;2023-04-24T08:24:42;99886.56;;;24.58;42.61
47738;BME280;33502;47.182;27.506;2023-04-24T08:27:08;99888.19;;;24.43;44.20
47738;BME280;33502;47.182;27.506;2023-04-24T08:29:33;99876.53;;;24.34;43.07
47738;BME280;33502;47.182;27.506;2023-04-24T08:31:59;99885.09;;;24.21;42.97
47738;BME280;33502;47.182;27.506;2023-04-24T08:34:25;99880.56;;;23.79;43.11
47738;BME280;33502;47.182;27.506;2023-04-24T08:36:50;99874.59;;;23.50;43.91
47738;BME280;33502;47.182;27.506;2023-04-24T08:39:16;99872.69;;;23.68;44.81
47738;BME280;33502;47.182;27.506;2023-04-24T08:41:42;99869.31;;;23.40;43.64
47738;BME280;33502;47.182;27.506;2023-04-24T08:44:09;99874.78;;;23.22;43.99
47738;BME280;33502;47.182;27.506;2023-04-24T08:46:34;99858.22;;;23.17;44.63
47738;BME280;33502;47.182;27.506;2023-04-24T08:49:01;99871.56;;;23.44;43.67
47738;BME280;33502;47.182;27.506;2023-04-24T08:51:27;99874.47;;;23.25;43.58
47738;BME280;33502;47.182;27.506;2023-04-24T08:53:55;99881.19;;;23.21;43.56
47738;BME280;33502;47.182;27.506;2023-04-24T08:56:22;99877.22;;;22.89;43.38
47738;BME280;33502;47.182;27.506;2023-04-24T08:58:52;99872.91;;;22.78;43.82
47738;BME280;33502;47.182;27.506;2023-04-24T09:01:19;99874.06;;;22.40;44.49
47738;BME280;33502;47.182;27.506;2023-04-24T09:03:45;99860.53;;;21.94;45.58
47738;BME280;33502;47.182;27.506;2023-04-24T09:06:12;99864.75;;;21.79;46.57
47738;BME280;33502;47.182;27.506;2023-04-24T09:08:38;99862.06;;;21.97;47.80
47738;BME280;33502;47.182;27.506;2023-04-24T09:11:05;99865.31;;;22.00;47.65
47738;BME280;33502;47.182;27.506;2023-04-24T09:13:30;99862.88;;;21.79;47.33
47738;BME280;33502;47.182;27.506;2023-04-24T09:15:57;99861.94;;;21.23;47.93
47738;BME280;33502;47.182;27.506;2023-04-24T09:18:22;99846.25;;;20.99;49.21
47738;BME280;33502;47.182;27.506;2023-04-24T09:23:25;99849.69;;;21.39;50.13
47738;BME280;33502;47.182;27.506;2023-04-24T09:25:53;99843.56;;;20.89;50.17
47738;BME280;33502;47.182;27.506;2023-04-24T09:28:19;99854.00;;;21.12;49.79
47738;BME280;33502;47.182;27.506;2023-04-24T09:31:01;99839.91;;;20.90;50.36
47738;BME280;33502;47.182;27.506;2023-04-24T09:33:27;99854.91;;;20.93;50.65
47738;BME280;33502;47.182;27.506;2023-04-24T09:35:52;99831.78;;;21.10;50.01
47738;BME280;33502;47.182;27.506;2023-04-24T09:38:18;99838.84;;;21.11;49.29
47738;BME280;33502;47.182;27.506;2023-04-24T09:40:43;99836.06;;;20.83;50.13
47738;BME280;33502;47.182;27.506;2023-04-24T09:43:10;99822.84;;;21.09;49.96
47738;BME280;33502;47.182;27.506;2023-04-24T09:45:37;99827.81;;;21.04;50.19
47738;BME280;33502;47.182;27.506;2023-04-24T09:48:03;99826.28;;;20.92;49.24
47738;BME280;33502;47.182;27.506;2023-04-24T09:50:29;99808.63;;;21.27;50.02
47738;BME280;33502;47.182;27.506;2023-04-24T09:53:03;99818.31;;;21.85;50.14
47738;BME280;33502;47.182;27.506;2023-04-24T09:55:30;99807.44;;;21.77;48.53
47738;BME280;33502;47.182;27.506;2023-04-24T09:57:59;99806.56;;;22.04;48.28
47738;BME280;33502;47.182;27.506;2023-04-24T10:00:31;99807.59;;;22.21;48.44
47738;BME280;33502;47.182;27.506;2023-04-24T10:03:00;99810.09;;;22.04;46.51
47738;BME280;33502;47.182;27.506;2023-04-24T10:05:33;99803.94;;;21.66;46.92
47738;BME280;33502;47.182;27.506;2023-04-24T10:08:05;99792.28;;;21.48;47.20
47738;BME280;33502;47.182;27.506;2023-04-24T10:10:32;99803.06;;;21.48;46.58
47738;BME280;33502;47.182;27.506;2023-04-24T10:12:58;99789.69;;;21.56;46.50
47738;BME280;33502;47.182;27.506;2023-04-24T10:15:24;99777.97;;;21.38;46.26
47738;BME280;33502;47.182;27.506;2023-04-24T10:17:51;99785.25;;;20.41;48.07
47738;BME280;33502;47.182;27.506;2023-04-24T10:20:21;99785.53;;;20.77;48.11
47738;BME280;33502;47.182;27.506;2023-04-24T10:22:51;99789.91;;;20.78;47.05
47738;BME280;33502;47.182;27.506;2023-04-24T10:25:21;99781.41;;;20.92;47.55
47738;BME280;33502;47.182;27.506;2023-04-24T10:27:48;99768.63;;;21.32;45.19
47738;BME280;33502;47.182;27.506;2023-04-24T10:30:15;99771.03;;;21.45;44.37
47738;BME280;33502;47.182;27.506;2023-04-24T10:32:40;99774.00;;;21.69;44.63
47738;BME280;33502;47.182;27.506;2023-04-24T10:35:06;99767.59;;;21.70;44.33
47738;BME280;33502;47.182;27.506;2023-04-24T10:37:49;99771.38;;;21.60;44.98
47738;BME280;33502;47.182;27.506;2023-04-24T10:40:17;99762.84;;;21.64;44.16
47738;BME280;33502;47.182;27.506;2023-04-24T10:42:43;99779.47;;;21.78;43.67
47738;BME280;33502;47.182;27.506;2023-04-24T10:45:18;99762.00;;;21.64;45.04
47738;BME280;33502;47.182;27.506;2023-04-24T10:48:02;99763.22;;;21.52;43.51
47738;BME280;33502;47.182;27.506;2023-04-24T10:50:47;99763.38;;;21.68;44.39
47738;BME280;33502;47.182;27.506;2023-04-24T10:53:25;99766.34;;;22.10;43.26
47738;BME280;33502;47.182;27.506;2023-04-24T10:59:03;99767.31;;;21.74;42.76
47738;BME280;33502;47.182;27.506;2023-04-24T11:01:26;99749.69;;;21.79;43.10
47738;BME280;33502;47.182;27.506;2023-04-24T11:03:58;99762.19;;;21.15;44.35
47738;BME280;33502;47.182;27.506;2023-04-24T11:06:42;99754.59;;;21.38;43.53
47738;BME280;33502;47.182;27.506;2023-04-24T11:09:09;99757.31;;;21.28;44.12
47738;BME280;33502;47.182;27.506;2023-04-24T11:11:37;99759.91;;;21.58;42.61
47738;BME280;33502;47.182;27.506;2023-04-24T11:14:06;99756.00;;;21.70;43.10
47738;BME280;33502;47.182;27.506;2023-04-24T11:26:47;99751.56;;;21.97;41.07
47738;BME280;33502;47.182;27.506;2023-04-24T11:29:13;99766.53;;;22.45;43.08
47738;BME280;33502;47.182;27.506;2023-04-24T11:31:43;99748.81;;;22.42;42.38
47738;BME280;33502;47.182;27.506;2023-04-24T11:34:15;99749.28;;;22.38;41.20
47738;BME280;33502;47.182;27.506;2023-04-24T11:36:45;99749.28;;;22.38;41.55
47738;BME280;33502;47.182;27.506;2023-04-24T11:39:11;99739.16;;;22.22;41.48
47738;BME280;33502;47.182;27.506;2023-04-24T11:41:37;99740.31;;;20.90;44.54
47738;BME280;33502;47.182;27.506;2023-04-24T11:44:03;99736.69;;;21.47;43.09
47738;BME280;33502;47.182;27.506;2023-04-24T11:46:29;99726.22;;;21.89;42.31
47738;BME280;33502;47.182;27.506;2023-04-24T11:48:55;99730.00;;;21.97;41.69
47738;BME280;33502;47.182;27.506;2023-04-24T11:51:22;99742.03;;;21.57;41.10
47738;BME280;33502;47.182;27.506;2023-04-24T11:53:47;99701.50;;;21.30;41.44
47738;BME280;33502;47.182;27.506;2023-04-24T11:56:16;99724.59;;;21.79;40.53
47738;BME280;33502;47.182;27.506;2023-04-24T11:58:42;99738.16;;;22.05;40.24
47738;BME280;33502;47.182;27.506;2023-04-24T12:01:08;99728.91;;;21.89;39.29
47738;BME280;33502;47.182;27.506;2023-04-24T12:03:33;99731.53;;;21.81;39.70
47738;BME280;33502;47.182;27.506;2023-04-24T12:06:09;99726.47;;;21.96;40.01
47738;BME280;33502;47.182;27.506;2023-04-24T12:08:35;99724.81;;;21.67;39.46
47738;BME280;33502;47.182;27.506;2023-04-24T12:11:01;99713.84;;;21.23;40.80
47738;BME280;33502;47.182;27.506;2023-04-24T12:13:27;99705.97;;;21.67;40.35
47738;BME280;33502;47.182;27.506;2023-04-24T12:15:53;99702.50;;;21.57;38.86
47738;BME280;33502;47.182;27.506;2023-04-24T12:18:21;99704.56;;;21.36;39.93
47738;BME280;33502;47.182;27.506;2023-04-24T12:20:47;99700.22;;;20.21;42.01
47738;BME280;33502;47.182;27.506;2023-04-24T12:23:12;99680.66;;;20.38;41.92
47738;BME280;33502;47.182;27.506;2023-04-24T12:25:38;99700.13;;;21.17;40.56
47738;BME280;33502;47.182;27.506;2023-04-24T12:30:30;99689.81;;;21.67;39.74
47738;BME280;33502;47.182;27.506;2023-04-24T12:32:59;99685.63;;;21.27;39.17
47738;BME280;33502;47.182;27.506;2023-04-24T12:35:29;99680.06;;;20.73;40.24
47738;BME280;33502;47.182;27.506;2023-04-24T12:38:05;99679.38;;;20.99;39.57
47738;BME280;33502;47.182;27.506;2023-04-24T12:40:30;99666.91;;;21.26;40.17
47738;BME280;33502;47.182;27.506;2023-04-24T12:42:57;99670.53;;;21.98;39.99
47738;BME280;33502;47.182;27.506;2023-04-24T12:45:22;99646.53;;;21.87;39.81
47738;BME280;33502;47.182;27.506;2023-04-24T12:47:50;99677.41;;;21.75;39.92
47738;BME280;33502;47.182;27.506;2023-04-24T12:50:16;99660.44;;;21.46;38.48
47738;BME280;33502;47.182;27.506;2023-04-24T12:52:42;99657.97;;;21.53;39.49
47738;BME280;33502;47.182;27.506;2023-04-24T12:55:09;99650.06;;;21.52;38.97
47738;BME280;33502;47.182;27.506;2023-04-24T12:57:35;99669.00;;;21.32;39.21
47738;BME280;33502;47.182;27.506;2023-04-24T13:00:01;99666.41;;;21.12;39.18
47738;BME280;33502;47.182;27.506;2023-04-24T13:02:27;99656.75;;;21.20;39.58
47738;BME280;33502;47.182;27.506;2023-04-24T13:04:53;99665.25;;;21.15;39.35
47738;BME280;33502;47.182;27.506;2023-04-24T13:07:19;99654.66;;;21.14;39.46
47738;BME280;33502;47.182;27.506;2023-04-24T13:09:45;99632.66;;;21.18;39.27